Terminal Aerodrome Forecast
Issued by NWS

Home | Current Version | Previous Version | Text Only | Print | Product List | Glossary On
Versions: 1 2 3 4 5 6 7 8 9 10 11 12 13 14 15 16 17
000
FTUS41 KGYX 262333
TAFAUG
TAF
KAUG 262333Z 2700/2724 02008KT P6SM SCT120 OVC200
     FM270400 02012G20KT P6SM -SHSN SCT025 BKN060 OVC080
     FM270800 01027G35KT 1SM -SN BLSN BKN015 OVC025
     FM271000 01030G40KT 1/2SM SN BLSN VV006
     FM271300 01032G45KT 1/4SM +SN BLSN VV002
     FM272200 01027G37KT 1SM -SN BLSN OVC003=

USA.gov is the U.S. government's official web portal to all federal, state and local government web resources and services.